Flower Mound, TX (75022)

12:32 PM CST on January 28, 2015 (GMT -0600)
Lost Creek Estates | Change Station
CLOSE
Current Station
Personal Weather Station
Location: Flower Mound, TX
Elevation: 620 ft
Nearby Weather Stations

Elev 620 ft 33.03 °N, 97.15 °W | Updated 0 second ago

Partly Cloudy
Partly Cloudy
77.2 °F
Feels Like 78 °F
N
9.2
Wind Variable Wind from SSE
Gusts 9.2 mph

Today
High -- | Low -- °F
--% Chance of Precip.
Yesterday
High -- | Low -- °F
Precip. -- in
7:26 AM 5:56 PM
Waxing Gibbous, 66% visible
Pressure 30.06 in
Visibility 10.0 miles
Clouds Few 500 ft
Mostly Cloudy 25000 ft
Heat Index 78 °F
Dew Point 42 °F
Humidity 28%
Rainfall 0.00 in
Snow Depth Not available.
UV 2 out of 12
Pollen 8.20 out of 12
Air Quality Not available.
Flu Activity Not available.
METAR KDFW 281753Z 16008KT 10SM FEW005 BKN250 22/06 A3008 RMK AO2 SLP180 FU FEW005 OHD-NE T02170061 10228 20089 58008

More Conditions Fewer Conditions

Pressure 30.06 in
Visibility 10.0 miles
Clouds Few 500 ft
Mostly Cloudy 25000 ft
Heat Index 78 °F
Dew Point 42 °F
Humidity 28%
Rainfall 0.00 in
Snow Depth Not available.
UV 2 out of 12
Pollen 8.20 out of 12
Air Quality Not available.
Flu Activity Not available.
METAR KDFW 281753Z 16008KT 10SM FEW005 BKN250 22/06 A3008 RMK AO2 SLP180 FU FEW005 OHD-NE T02170061 10228 20089 58008

More Conditions Fewer Conditions

10-Day Weather Forecast

Almanac

Astronomy

Jan. 28, 2015 Rise Set
Actual Time
Civil Twilight
Nautical Twilight
Astronomical Twilight
Moon
Length of Visible Light
Length of Day
Tomorrow will be .
, % of the Moon is Illuminated

Today's Extremes

State Highs State Lows

Community

WunderPhotos

Upload Photos

1,791,241 photos uploaded!

WunderBlogs® & News

Nearby

Air Quality

  Air Quality AQ Index Pollutant
Not available.

Snow Depth

Station Depth Elevation

Earthquake Activity

City Distance Mag. Time & Date
Minimum magnitude displayed is 2.5.

Coastal Water Temperatures

Place Temperature

Nearby Weather Stations